createdAt,value
2023-05-19T00:01:31.148Z,2.33
2023-05-19T00:04:02.660Z,2.85
2023-05-19T00:06:32.038Z,2.80
2023-05-19T00:09:00.429Z,2.80
2023-05-19T00:11:28.474Z,3.00
2023-05-19T00:13:59.801Z,2.55
2023-05-19T00:16:28.289Z,3.00
2023-05-19T00:18:57.155Z,2.63
2023-05-19T00:21:24.940Z,2.47
2023-05-19T00:23:52.666Z,2.72
2023-05-19T00:26:21.942Z,2.40
2023-05-19T00:28:50.303Z,2.40
2023-05-19T00:31:19.406Z,2.07
2023-05-19T00:33:47.348Z,2.50
2023-05-19T00:36:15.111Z,2.40
2023-05-19T00:38:42.810Z,2.17
2023-05-19T00:41:10.993Z,2.58
2023-05-19T00:43:38.681Z,2.50
2023-05-19T00:46:07.328Z,2.53
2023-05-19T00:48:36.480Z,2.33
2023-05-19T00:51:06.694Z,2.20
2023-05-19T00:53:34.928Z,2.50
2023-05-19T00:56:03.035Z,2.23
2023-05-19T00:58:32.722Z,2.25
2023-05-19T01:01:04.163Z,1.95
2023-05-19T01:03:35.009Z,2.45
2023-05-19T01:06:06.038Z,2.28
2023-05-19T01:08:33.926Z,2.10
2023-05-19T01:11:01.710Z,2.55
2023-05-19T01:13:30.017Z,2.08
2023-05-19T01:16:01.105Z,2.30
2023-05-19T01:18:33.537Z,2.50
2023-05-19T01:21:11.814Z,2.00
2023-05-19T01:23:47.712Z,2.30
2023-05-19T01:26:26.740Z,2.38
2023-05-19T01:29:03.841Z,2.10
2023-05-19T01:31:33.633Z,2.33
2023-05-19T01:34:01.509Z,2.50
2023-05-19T01:36:29.271Z,2.40
2023-05-19T01:38:57.998Z,2.28
2023-05-19T01:41:28.481Z,2.30
2023-05-19T01:43:57.127Z,2.30
2023-05-19T01:46:25.372Z,2.63
2023-05-19T01:48:54.631Z,2.20
2023-05-19T01:51:22.346Z,2.20
2023-05-19T01:53:50.039Z,2.45
2023-05-19T01:56:22.267Z,2.25
2023-05-19T01:58:53.358Z,2.23
2023-05-19T02:01:25.456Z,2.65
2023-05-19T02:04:05.950Z,2.28
2023-05-19T02:06:38.124Z,2.45
2023-05-19T02:09:09.533Z,2.20
2023-05-19T02:11:38.462Z,2.50
2023-05-19T02:14:10.068Z,2.75
2023-05-19T02:16:38.041Z,2.90
2023-05-19T02:19:07.050Z,2.42
2023-05-19T02:21:34.813Z,2.90
2023-05-19T02:24:02.462Z,2.40
2023-05-19T02:26:30.092Z,2.63
2023-05-19T02:28:57.731Z,2.53
2023-05-19T02:31:25.466Z,2.38
2023-05-19T02:33:53.095Z,2.65
2023-05-19T02:36:22.119Z,2.80
2023-05-19T02:38:49.876Z,2.67
2023-05-19T02:41:17.497Z,2.53
2023-05-19T02:43:45.180Z,2.65
2023-05-19T02:46:12.789Z,2.72
2023-05-19T02:48:40.676Z,2.47
2023-05-19T02:51:08.326Z,2.60
2023-05-19T02:53:37.497Z,2.58
2023-05-19T02:56:05.433Z,3.22
2023-05-19T02:58:33.064Z,3.00
2023-05-19T03:01:00.929Z,2.47
2023-05-19T03:03:28.818Z,2.58
2023-05-19T03:05:56.668Z,2.85
2023-05-19T03:08:24.312Z,3.05
2023-05-19T03:10:53.342Z,3.03
2023-05-19T03:13:21.057Z,2.60
2023-05-19T03:15:51.226Z,2.85
2023-05-19T03:18:18.973Z,2.30
2023-05-19T03:20:46.697Z,2.55
2023-05-19T03:23:14.381Z,2.85
2023-05-19T03:25:42.092Z,2.87
2023-05-19T03:28:11.103Z,3.15
2023-05-19T03:30:38.847Z,2.90
2023-05-19T03:33:07.777Z,2.40
2023-05-19T03:35:35.658Z,2.65
2023-05-19T03:38:03.323Z,2.73
2023-05-19T03:40:31.063Z,3.22
2023-05-19T03:42:58.789Z,2.83
2023-05-19T03:45:27.906Z,3.17
2023-05-19T03:47:55.681Z,2.75
2023-05-19T03:50:23.917Z,3.00
2023-05-19T03:52:51.592Z,3.30
2023-05-19T03:55:20.279Z,3.40
2023-05-19T03:57:48.882Z,3.22
2023-05-19T04:00:16.988Z,2.78
2023-05-19T04:02:46.091Z,3.53
2023-05-19T04:05:13.801Z,3.10
2023-05-19T04:07:41.694Z,2.92
2023-05-19T04:10:09.630Z,3.08
2023-05-19T04:12:37.272Z,3.28
2023-05-19T04:15:05.883Z,3.90
2023-05-19T04:17:33.671Z,3.35
2023-05-19T04:20:02.777Z,3.45
2023-05-19T04:22:30.549Z,3.65
2023-05-19T04:24:58.356Z,3.97
2023-05-19T04:27:27.832Z,4.33
2023-05-19T04:29:56.182Z,3.85
2023-05-19T04:32:23.940Z,3.85
2023-05-19T04:34:51.800Z,3.92
2023-05-19T04:37:21.172Z,4.03
2023-05-19T04:39:48.914Z,4.30
2023-05-19T04:42:19.260Z,3.95
2023-05-19T04:44:49.269Z,4.00
2023-05-19T04:47:18.164Z,4.07
2023-05-19T04:49:46.059Z,4.05
2023-05-19T04:52:13.756Z,3.47
2023-05-19T04:54:42.769Z,3.65
2023-05-19T04:57:10.904Z,3.88
2023-05-19T04:59:38.643Z,3.80
2023-05-19T05:02:06.457Z,3.33
2023-05-19T05:04:34.136Z,3.40
2023-05-19T05:07:01.944Z,3.65
2023-05-19T05:09:29.618Z,3.17
2023-05-19T05:11:59.072Z,3.28
2023-05-19T05:14:27.122Z,3.30
2023-05-19T05:16:55.022Z,3.47
2023-05-19T05:19:23.233Z,3.50
2023-05-19T05:21:52.156Z,3.50
2023-05-19T05:24:20.326Z,3.97
2023-05-19T05:26:48.290Z,4.03
2023-05-19T05:29:17.297Z,3.40
2023-05-19T05:31:44.946Z,3.55
2023-05-19T05:34:12.631Z,3.45
2023-05-19T05:36:40.264Z,3.45
2023-05-19T05:39:08.205Z,3.25
2023-05-19T05:41:36.102Z,3.00
2023-05-19T05:44:03.746Z,3.15
2023-05-19T05:46:33.275Z,3.50
2023-05-19T05:49:01.387Z,3.58
2023-05-19T05:51:29.369Z,3.22
2023-05-19T05:53:57.337Z,3.50
2023-05-19T05:56:26.850Z,3.33
2023-05-19T05:58:54.504Z,3.55
2023-05-19T06:01:24.040Z,3.03
2023-05-19T06:03:53.127Z,3.08
2023-05-19T06:06:20.810Z,3.27
2023-05-19T06:08:48.424Z,3.10
2023-05-19T06:11:16.045Z,3.28
2023-05-19T06:13:43.801Z,3.20
2023-05-19T06:16:11.419Z,3.28
2023-05-19T06:18:39.073Z,3.10
2023-05-19T06:21:10.359Z,3.30
2023-05-19T06:23:38.042Z,3.03
2023-05-19T06:26:05.908Z,3.40
2023-05-19T06:28:33.734Z,3.22
2023-05-19T06:31:01.450Z,3.30
2023-05-19T06:33:29.386Z,3.40
2023-05-19T06:35:57.077Z,3.45
2023-05-19T06:38:26.101Z,2.88
2023-05-19T06:40:53.732Z,3.28
2023-05-19T06:43:21.391Z,3.10
2023-05-19T06:45:49.002Z,3.20
2023-05-19T06:48:16.696Z,3.03
2023-05-19T06:50:44.425Z,3.05
2023-05-19T06:53:12.012Z,2.75
2023-05-19T06:55:54.322Z,2.63
2023-05-19T06:58:26.783Z,3.17
2023-05-19T07:00:54.605Z,3.00
2023-05-19T07:03:22.340Z,3.00
2023-05-19T07:05:50.103Z,2.70
2023-05-19T07:08:17.778Z,2.87
2023-05-19T07:10:46.756Z,2.90
2023-05-19T07:13:14.508Z,2.90
2023-05-19T07:15:42.142Z,2.92
2023-05-19T07:18:09.824Z,2.83
2023-05-19T07:20:37.521Z,3.20
2023-05-19T07:23:05.305Z,2.95
2023-05-19T07:25:33.366Z,2.70
2023-05-19T07:28:02.491Z,2.95
2023-05-19T07:30:30.340Z,2.75
2023-05-19T07:32:58.105Z,3.00
2023-05-19T07:35:26.149Z,2.88
2023-05-19T07:37:53.827Z,3.00
2023-05-19T07:40:21.709Z,3.00
2023-05-19T07:42:50.373Z,2.80
2023-05-19T07:45:19.494Z,3.17
2023-05-19T07:47:47.245Z,3.25
2023-05-19T07:50:14.976Z,2.95
2023-05-19T07:52:42.624Z,3.38
2023-05-19T07:55:10.271Z,3.63
2023-05-19T07:57:37.890Z,3.53
2023-05-19T08:00:07.759Z,3.67
2023-05-19T08:02:36.920Z,3.50
2023-05-19T08:05:05.035Z,3.35
2023-05-19T08:07:33.065Z,3.22
2023-05-19T08:10:00.887Z,3.60
2023-05-19T08:12:28.504Z,3.30
2023-05-19T08:14:56.943Z,3.08
2023-05-19T08:17:25.870Z,3.58
2023-05-19T08:19:55.167Z,3.17
2023-05-19T08:22:22.927Z,2.90
2023-05-19T08:24:51.840Z,2.83
2023-05-19T08:27:19.514Z,2.70
2023-05-19T08:29:47.216Z,2.92
2023-05-19T08:32:14.876Z,3.35
2023-05-19T08:34:42.549Z,3.10
2023-05-19T08:37:11.951Z,3.28
2023-05-19T08:39:39.705Z,3.00
2023-05-19T08:42:09.835Z,2.90
2023-05-19T08:44:37.802Z,2.95
2023-05-19T08:47:08.029Z,3.10
2023-05-19T08:49:38.631Z,3.30
2023-05-19T08:52:11.020Z,3.05
2023-05-19T08:54:48.334Z,3.33
2023-05-19T08:57:16.197Z,3.45
2023-05-19T08:59:44.313Z,2.93
2023-05-19T09:02:12.647Z,3.20
2023-05-19T09:04:40.891Z,3.00
2023-05-19T09:07:09.422Z,2.85
2023-05-19T09:09:37.144Z,3.17
2023-05-19T09:12:06.456Z,3.33
2023-05-19T09:14:34.782Z,3.30
2023-05-19T09:17:02.850Z,3.15
2023-05-19T09:19:31.076Z,3.50
2023-05-19T09:21:59.546Z,3.45
2023-05-19T09:24:27.222Z,3.00
2023-05-19T09:26:58.029Z,3.75
2023-05-19T09:29:28.885Z,3.03
2023-05-19T09:32:00.761Z,3.53
2023-05-19T09:34:28.821Z,3.22
2023-05-19T09:36:57.831Z,3.90
2023-05-19T09:39:26.134Z,3.67
2023-05-19T09:41:53.947Z,3.30
2023-05-19T09:44:28.927Z,3.38
2023-05-19T09:46:58.316Z,2.70
2023-05-19T09:49:28.949Z,3.20
2023-05-19T09:51:56.802Z,2.92
2023-05-19T09:54:25.327Z,3.10
2023-05-19T09:56:54.350Z,3.60
2023-05-19T09:59:25.156Z,3.83
2023-05-19T10:01:54.171Z,3.70
2023-05-19T10:04:23.595Z,3.08
2023-05-19T10:06:53.575Z,2.80
2023-05-19T10:09:23.166Z,3.47
2023-05-19T10:11:52.638Z,3.25
2023-05-19T10:14:21.197Z,4.10
2023-05-19T10:16:50.608Z,3.55
2023-05-19T10:19:20.082Z,3.92
2023-05-19T10:21:49.143Z,3.30
2023-05-19T10:24:16.812Z,3.47
2023-05-19T10:26:45.981Z,2.97
2023-05-19T10:29:15.850Z,3.00
2023-05-19T10:31:44.453Z,3.42
2023-05-19T10:34:23.322Z,3.22
2023-05-19T10:36:56.301Z,3.20
2023-05-19T10:39:27.842Z,3.10
2023-05-19T10:42:01.302Z,3.10
2023-05-19T10:44:36.242Z,2.80
2023-05-19T10:47:03.919Z,3.38
2023-05-19T10:49:35.806Z,2.95
2023-05-19T10:52:05.400Z,2.83
2023-05-19T10:54:43.368Z,3.30
2023-05-19T10:57:15.467Z,3.40
2023-05-19T10:59:44.666Z,2.78
2023-05-19T11:02:32.329Z,3.15
2023-05-19T11:05:09.201Z,3.27
2023-05-19T11:07:37.048Z,3.08
2023-05-19T11:10:08.328Z,2.63
2023-05-19T11:12:43.377Z,3.33
2023-05-19T11:15:14.882Z,3.78
2023-05-19T11:17:43.454Z,2.87
2023-05-19T11:20:22.583Z,2.72
2023-05-19T11:23:05.285Z,3.00
2023-05-19T11:25:42.559Z,2.90
2023-05-19T11:28:12.073Z,3.20
2023-05-19T11:30:40.958Z,2.73
2023-05-19T11:33:08.953Z,2.80
2023-05-19T11:35:38.513Z,2.85
2023-05-19T11:38:06.698Z,2.90
2023-05-19T11:40:34.474Z,2.70
2023-05-19T11:43:02.892Z,2.87
2023-05-19T11:45:32.433Z,2.65
2023-05-19T11:48:03.084Z,3.00
2023-05-19T11:50:31.874Z,3.33
2023-05-19T11:53:01.365Z,2.92
2023-05-19T11:55:30.861Z,3.00
2023-05-19T12:00:31.525Z,3.38
2023-05-19T12:02:59.252Z,3.30
2023-05-19T12:05:28.042Z,3.00
2023-05-19T12:07:55.770Z,3.47
2023-05-19T12:10:25.407Z,3.40
2023-05-19T12:12:53.343Z,3.00
2023-05-19T12:15:22.020Z,3.50
2023-05-19T12:17:52.908Z,3.75
2023-05-19T12:20:20.922Z,3.33
2023-05-19T12:22:49.023Z,3.28
2023-05-19T12:25:17.241Z,2.70
2023-05-19T12:27:46.273Z,3.00
2023-05-19T12:30:14.300Z,2.72
2023-05-19T12:32:42.113Z,3.00
2023-05-19T12:35:10.113Z,2.63
2023-05-19T12:37:37.931Z,3.47
2023-05-19T12:40:05.958Z,3.22
2023-05-19T12:42:35.019Z,3.13
2023-05-19T12:45:05.234Z,4.43
2023-05-19T12:47:34.795Z,4.93
2023-05-19T12:50:03.140Z,3.70
2023-05-19T12:52:32.616Z,3.53
2023-05-19T12:55:01.383Z,4.70
2023-05-19T12:57:31.999Z,3.60
2023-05-19T13:00:06.947Z,3.75
2023-05-19T13:02:35.500Z,4.13
2023-05-19T13:05:03.753Z,3.78
2023-05-19T13:07:31.452Z,3.95
2023-05-19T13:09:59.124Z,3.90
2023-05-19T13:12:27.615Z,3.80
2023-05-19T13:14:55.834Z,4.35
2023-05-19T13:17:25.016Z,3.85
2023-05-19T13:19:53.034Z,4.10
2023-05-19T13:22:20.844Z,4.17
2023-05-19T13:24:48.484Z,3.88
2023-05-19T13:27:16.209Z,3.85
2023-05-19T13:29:43.904Z,3.95
2023-05-19T13:32:11.564Z,3.75
2023-05-19T13:34:40.634Z,3.90
2023-05-19T13:37:10.146Z,3.72
2023-05-19T13:39:37.932Z,3.88
2023-05-19T13:42:06.350Z,4.82
2023-05-19T13:44:34.140Z,4.70
2023-05-19T13:47:01.874Z,4.97
2023-05-19T13:49:29.532Z,4.32
2023-05-19T13:51:58.700Z,4.53
2023-05-19T13:54:26.419Z,4.13
2023-05-19T13:56:54.205Z,3.50
2023-05-19T13:59:22.530Z,3.60
2023-05-19T14:01:50.564Z,3.47
2023-05-19T14:04:18.876Z,3.20
2023-05-19T14:06:46.755Z,3.35
2023-05-19T14:09:16.054Z,3.50
2023-05-19T14:11:43.907Z,3.40
2023-05-19T14:14:11.691Z,3.28
2023-05-19T14:16:39.547Z,2.90
2023-05-19T14:19:07.423Z,3.28
2023-05-19T14:21:36.491Z,3.10
2023-05-19T14:24:04.177Z,3.20
2023-05-19T14:26:33.159Z,2.72
2023-05-19T14:29:01.551Z,3.30
2023-05-19T14:31:30.181Z,2.70
2023-05-19T14:33:57.809Z,2.70
2023-05-19T14:36:25.401Z,2.90
2023-05-19T14:38:53.287Z,2.83
2023-05-19T14:41:21.580Z,2.63
2023-05-19T14:43:50.627Z,2.30
2023-05-19T14:46:18.271Z,2.88
2023-05-19T14:48:45.975Z,3.00
2023-05-19T14:51:13.653Z,2.65
2023-05-19T14:53:41.316Z,3.15
2023-05-19T14:56:09.145Z,2.70
2023-05-19T14:58:36.784Z,3.05
2023-05-19T15:01:05.958Z,2.83
2023-05-19T15:03:33.743Z,2.70
2023-05-19T15:06:01.369Z,2.63
2023-05-19T15:08:29.006Z,3.10
2023-05-19T15:10:56.645Z,2.70
2023-05-19T15:13:24.374Z,2.70
2023-05-19T15:16:01.671Z,2.75
2023-05-19T15:18:37.913Z,2.90
2023-05-19T15:21:05.996Z,2.55
2023-05-19T15:23:33.629Z,2.67
2023-05-19T15:26:01.491Z,2.60
2023-05-19T15:28:29.209Z,2.60
2023-05-19T15:30:56.894Z,2.40
2023-05-19T15:33:24.617Z,2.50
2023-05-19T15:35:54.323Z,2.65
2023-05-19T15:38:22.074Z,2.13
2023-05-19T15:40:49.708Z,2.00
2023-05-19T15:43:17.517Z,2.17
2023-05-19T15:45:45.185Z,2.22
2023-05-19T15:48:12.911Z,1.90
2023-05-19T15:50:40.579Z,2.60
2023-05-19T15:53:10.657Z,2.10
2023-05-19T15:55:38.316Z,2.10
2023-05-19T15:58:05.940Z,1.90
2023-05-19T16:00:33.792Z,1.80
2023-05-19T16:03:01.808Z,1.50
2023-05-19T16:05:29.522Z,1.90
2023-05-19T16:07:57.358Z,1.65
2023-05-19T16:10:26.551Z,1.60
2023-05-19T16:12:54.345Z,2.00
2023-05-19T16:15:22.292Z,2.03
2023-05-19T16:17:50.040Z,2.00
2023-05-19T16:20:17.701Z,2.30
2023-05-19T16:22:45.465Z,2.00
2023-05-19T16:25:13.416Z,1.80
2023-05-19T16:27:42.410Z,1.90
2023-05-19T16:30:10.659Z,1.70
2023-05-19T16:32:38.373Z,1.80
2023-05-19T16:35:06.621Z,1.92
2023-05-19T16:37:34.517Z,1.90
2023-05-19T16:40:02.184Z,2.07
2023-05-19T16:42:29.852Z,1.80
2023-05-19T16:44:58.825Z,1.85
2023-05-19T16:47:26.505Z,1.90
2023-05-19T16:49:54.244Z,1.95
2023-05-19T16:52:21.883Z,2.30
2023-05-19T16:54:49.538Z,2.10
2023-05-19T16:57:17.138Z,2.13
2023-05-19T16:59:45.021Z,2.20
2023-05-19T17:02:14.004Z,2.50
2023-05-19T17:04:41.648Z,2.33
2023-05-19T17:07:09.655Z,2.30
2023-05-19T17:09:37.277Z,2.25
2023-05-19T17:12:05.227Z,2.30
2023-05-19T17:14:33.075Z,2.45
2023-05-19T17:17:00.888Z,2.50
2023-05-19T17:19:29.968Z,2.60
2023-05-19T17:21:57.790Z,2.10
2023-05-19T17:24:26.220Z,2.45
2023-05-19T17:26:54.735Z,2.20
2023-05-19T17:29:22.533Z,2.40
2023-05-19T17:31:50.327Z,2.35
2023-05-19T17:34:18.000Z,2.10
2023-05-19T17:36:47.046Z,2.30
2023-05-19T17:39:14.637Z,2.30
2023-05-19T17:41:42.558Z,2.10
2023-05-19T17:44:11.270Z,2.15
2023-05-19T17:46:39.585Z,2.67
2023-05-19T17:49:07.387Z,1.98
2023-05-19T17:51:35.362Z,2.58
2023-05-19T17:54:05.321Z,2.10
2023-05-19T17:56:34.649Z,2.55
2023-05-19T17:59:02.609Z,2.20
2023-05-19T18:01:30.589Z,2.25
2023-05-19T18:03:58.725Z,2.40
2023-05-19T18:06:26.540Z,2.50
2023-05-19T18:08:54.381Z,2.78
2023-05-19T18:11:23.813Z,2.47
2023-05-19T18:13:51.489Z,2.25
2023-05-19T18:16:19.165Z,2.80
2023-05-19T18:18:50.405Z,2.40
2023-05-19T18:21:18.633Z,2.45
2023-05-19T18:23:46.418Z,2.70
2023-05-19T18:26:15.635Z,2.65
2023-05-19T18:28:48.132Z,2.55
2023-05-19T18:31:19.941Z,2.50
2023-05-19T18:33:48.608Z,2.72
2023-05-19T18:36:16.880Z,2.70
2023-05-19T18:38:44.823Z,2.60
2023-05-19T18:41:12.657Z,2.92
2023-05-19T18:43:40.449Z,2.30
2023-05-19T18:46:09.776Z,2.70
2023-05-19T18:48:38.156Z,2.60
2023-05-19T18:51:07.296Z,2.45
2023-05-19T18:53:35.936Z,2.47
2023-05-19T18:56:04.341Z,2.50
2023-05-19T18:58:32.417Z,2.83
2023-05-19T19:01:00.337Z,2.30
2023-05-19T19:03:30.044Z,2.50
2023-05-19T19:05:58.754Z,2.28
2023-05-19T19:08:26.586Z,2.33
2023-05-19T19:10:59.283Z,2.70
2023-05-19T19:13:27.330Z,2.63
2023-05-19T19:15:55.273Z,2.50
2023-05-19T19:18:23.121Z,2.33
2023-05-19T19:20:52.561Z,2.60
2023-05-19T19:23:20.671Z,2.53
2023-05-19T19:25:48.643Z,2.20
2023-05-19T19:28:16.450Z,2.50
2023-05-19T19:30:44.226Z,2.80
2023-05-19T19:33:12.020Z,2.80
2023-05-19T19:35:39.851Z,2.95
2023-05-19T19:38:09.093Z,2.60
2023-05-19T19:40:37.100Z,3.20
2023-05-19T19:43:05.684Z,2.63
2023-05-19T19:45:34.940Z,2.60
2023-05-19T19:48:02.938Z,2.53
2023-05-19T19:50:31.296Z,2.60
2023-05-19T19:52:59.226Z,2.35
2023-05-19T19:55:29.957Z,2.63
2023-05-19T19:57:57.690Z,2.70
2023-05-19T20:00:25.686Z,3.20
2023-05-19T20:03:03.805Z,3.00
2023-05-19T20:05:33.025Z,2.83
2023-05-19T20:08:00.694Z,3.03
2023-05-19T20:10:29.745Z,2.87
2023-05-19T20:12:58.893Z,2.42
2023-05-19T20:15:26.742Z,2.97
2023-05-19T20:17:54.464Z,2.80
2023-05-19T20:20:22.072Z,2.90
2023-05-19T20:22:49.710Z,2.80
2023-05-19T20:25:17.300Z,2.88
2023-05-19T20:27:46.292Z,2.80
2023-05-19T20:30:13.966Z,3.08
2023-05-19T20:32:41.649Z,2.88
2023-05-19T20:35:09.736Z,3.30
2023-05-19T20:37:37.358Z,3.00
2023-05-19T20:40:05.430Z,3.22
2023-05-19T20:42:33.176Z,2.67
2023-05-19T20:45:02.599Z,2.63
2023-05-19T20:47:30.634Z,3.00
2023-05-19T20:49:58.797Z,2.80
2023-05-19T20:52:27.090Z,2.85
2023-05-19T20:54:54.689Z,3.22
2023-05-19T20:57:22.328Z,3.13
2023-05-19T20:59:50.012Z,3.23
2023-05-19T21:02:19.153Z,3.00
2023-05-19T21:04:47.046Z,2.80
2023-05-19T21:07:14.772Z,2.60
2023-05-19T21:09:42.835Z,2.72
2023-05-19T21:12:10.557Z,2.80
2023-05-19T21:14:38.368Z,2.83
2023-05-19T21:17:07.168Z,2.63
2023-05-19T21:19:37.502Z,2.70
2023-05-19T21:22:05.479Z,2.80
2023-05-19T21:24:33.181Z,2.87
2023-05-19T21:27:00.816Z,3.10
2023-05-19T21:29:28.636Z,2.72
2023-05-19T21:31:58.988Z,2.80
2023-05-19T21:34:26.611Z,2.75
2023-05-19T21:36:55.833Z,2.60
2023-05-19T21:39:23.488Z,2.88
2023-05-19T21:41:51.368Z,3.03
2023-05-19T21:44:19.090Z,2.90
2023-05-19T21:46:46.767Z,2.97
2023-05-19T21:49:14.425Z,3.37
2023-05-19T21:51:42.051Z,3.20
2023-05-19T21:54:11.302Z,3.05
2023-05-19T21:56:38.961Z,2.70
2023-05-19T21:59:06.945Z,3.40
2023-05-19T22:01:34.649Z,3.60
2023-05-19T22:04:02.421Z,3.33
2023-05-19T22:06:30.240Z,3.60
2023-05-19T22:09:00.573Z,3.30
2023-05-19T22:11:29.647Z,3.70
2023-05-19T22:13:57.284Z,3.27
2023-05-19T22:16:25.064Z,3.55
2023-05-19T22:18:52.827Z,3.50
2023-05-19T22:21:20.596Z,3.65
2023-05-19T22:23:48.433Z,3.08
2023-05-19T22:26:16.489Z,3.40
2023-05-19T22:28:45.518Z,3.33
2023-05-19T22:31:13.163Z,3.17
2023-05-19T22:33:40.787Z,3.60
2023-05-19T22:36:10.932Z,3.42
2023-05-19T22:38:38.610Z,3.63
2023-05-19T22:41:06.573Z,3.17
2023-05-19T22:43:34.345Z,3.40
2023-05-19T22:46:03.368Z,3.33
2023-05-19T22:48:31.635Z,3.50
2023-05-19T22:50:59.330Z,3.63
2023-05-19T22:53:26.925Z,3.65
2023-05-19T22:55:54.586Z,3.20
2023-05-19T22:58:22.187Z,3.42
2023-05-19T23:00:49.899Z,3.60
2023-05-19T23:03:19.353Z,3.10
2023-05-19T23:05:46.987Z,3.30
2023-05-19T23:08:14.648Z,3.40
2023-05-19T23:10:42.252Z,3.25
2023-05-19T23:13:10.251Z,2.80
2023-05-19T23:15:37.872Z,2.97
2023-05-19T23:18:07.492Z,2.97
2023-05-19T23:20:36.617Z,3.45
2023-05-19T23:23:04.266Z,3.28
2023-05-19T23:25:32.325Z,3.30
2023-05-19T23:28:00.094Z,3.57
2023-05-19T23:30:28.616Z,2.90
2023-05-19T23:32:56.316Z,2.90
2023-05-19T23:35:23.972Z,3.47
2023-05-19T23:37:54.023Z,3.20
2023-05-19T23:40:21.666Z,3.13
2023-05-19T23:42:49.317Z,3.55
2023-05-19T23:45:17.027Z,2.88
2023-05-19T23:47:44.759Z,2.90
2023-05-19T23:50:12.427Z,2.90
2023-05-19T23:52:40.544Z,3.10
2023-05-19T23:55:12.706Z,2.70
2023-05-19T23:57:40.437Z,2.97
